Time;durP1;ratioP1;P1;durP2;ratioP2;P2;SDS_P1;SDS_P2;PMS_P1;PMS_P2;Temp;Humidity;BMP_temperature;BMP_pressure;BME280_temperature;BME280_humidity;BME280_pressure;Samples;Min_cycle;Max_cycle;Signal;HPM_P1;HPM_P2
2022/08/27 00:00:38;;;;;;;8.30;7.38;;;;;;;;;;5065059;28;20201;-69
2022/08/27 00:03:05;;;;;;;8.57;7.55;;;;;;;;;;5065192;28;20208;-69
2022/08/27 00:05:31;;;;;;;8.85;7.10;;;;;;;;;;5064699;28;20229;-69
2022/08/27 00:07:57;;;;;;;8.32;7.53;;;;;;;;;;5064970;28;20197;-69
2022/08/27 00:10:25;;;;;;;8.73;7.43;;;;;;;;;;5064746;28;20395;-69
2022/08/27 00:12:51;;;;;;;9.02;7.45;;;;;;;;;;5064989;28;20497;-69
2022/08/27 00:15:19;;;;;;;8.50;7.07;;;;;;;;;;5064896;28;20500;-69
2022/08/27 00:17:46;;;;;;;8.68;7.47;;;;;;;;;;5064846;28;20496;-69
2022/08/27 00:20:13;;;;;;;8.32;7.63;;;;;;;;;;5064469;28;20204;-69
2022/08/27 00:22:39;;;;;;;9.85;6.90;;;;;;;;;;5064536;28;20204;-69
2022/08/27 00:25:06;;;;;;;10.80;7.22;;;;;;;;;;5064746;28;20229;-69
2022/08/27 00:27:32;;;;;;;8.90;7.60;;;;;;;;;;5064807;28;20197;-69
2022/08/27 00:29:59;;;;;;;7.70;7.00;;;;;;;;;;5064366;28;20212;-69
2022/08/27 00:32:27;;;;;;;8.73;6.22;;;;;;;;;;5064736;28;20220;-69
2022/08/27 00:34:53;;;;;;;8.13;7.35;;;;;;;;;;5064538;28;20193;-69
2022/08/27 00:37:19;;;;;;;7.70;6.95;;;;;;;;;;5064314;28;20209;-69
2022/08/27 00:39:46;;;;;;;7.97;7.13;;;;;;;;;;5064233;28;20497;-69
2022/08/27 00:42:12;;;;;;;9.27;7.65;;;;;;;;;;5064429;28;20505;-69
2022/08/27 00:44:38;;;;;;;10.82;7.30;;;;;;;;;;5064039;28;20243;-69
2022/08/27 00:47:06;;;;;;;9.55;6.93;;;;;;;;;;5064565;28;20204;-69
2022/08/27 00:49:38;;;;;;;8.23;7.03;;;;;;;;;;5063983;28;20251;-69
2022/08/27 00:52:14;;;;;;;8.13;7.32;;;;;;;;;;5064056;28;20204;-69
2022/08/27 00:54:40;;;;;;;9.07;7.50;;;;;;;;;;5064042;28;20228;-69
2022/08/27 00:57:06;;;;;;;8.57;7.78;;;;;;;;;;5064033;28;20559;-69
2022/08/27 00:59:33;;;;;;;8.13;7.40;;;;;;;;;;5063824;28;20197;-69
2022/08/27 01:04:46;;;;;;;8.52;7.70;;;;;;;;;;5063838;28;20191;-69
2022/08/27 01:07:13;;;;;;;9.40;7.90;;;;;;;;;;5063626;28;20243;-69
2022/08/27 01:09:41;;;;;;;10.25;9.10;;;;;;;;;;5063678;28;20197;-70
2022/08/27 01:12:07;;;;;;;15.70;9.25;;;;;;;;;;5063631;28;20243;-69
2022/08/27 01:14:34;;;;;;;8.73;7.88;;;;;;;;;;5063433;28;20232;-69
2022/08/27 01:17:02;;;;;;;11.05;9.15;;;;;;;;;;5063565;28;20193;-69
2022/08/27 01:19:30;;;;;;;10.85;8.02;;;;;;;;;;5063615;28;20243;-69
2022/08/27 01:22:01;;;;;;;11.43;9.90;;;;;;;;;;5063694;28;20220;-69
2022/08/27 01:24:34;;;;;;;10.15;8.52;;;;;;;;;;5063902;28;20201;-69
2022/08/27 01:27:01;;;;;;;10.35;8.63;;;;;;;;;;5063381;28;20229;-69
2022/08/27 01:29:28;;;;;;;13.02;8.27;;;;;;;;;;5063037;28;20258;-69
2022/08/27 01:31:58;;;;;;;8.75;7.90;;;;;;;;;;5063470;28;20204;-69
2022/08/27 01:34:24;;;;;;;10.02;8.40;;;;;;;;;;5063271;28;20197;-69
2022/08/27 01:36:51;;;;;;;11.80;8.68;;;;;;;;;;5063338;28;20497;-69
2022/08/27 01:39:17;;;;;;;12.77;8.75;;;;;;;;;;5062993;28;20550;-69
2022/08/27 01:41:44;;;;;;;9.40;8.20;;;;;;;;;;5063187;28;20205;-69
2022/08/27 01:44:11;;;;;;;9.38;8.45;;;;;;;;;;5062974;28;20201;-69
2022/08/27 01:46:37;;;;;;;9.38;7.55;;;;;;;;;;5062960;28;20221;-69
2022/08/27 01:49:04;;;;;;;9.45;8.15;;;;;;;;;;5062904;28;20441;-69
2022/08/27 01:51:30;;;;;;;9.48;8.27;;;;;;;;;;5063097;28;20197;-69
2022/08/27 01:53:56;;;;;;;13.38;8.60;;;;;;;;;;5062935;28;20197;-69
2022/08/27 01:56:24;;;;;;;9.50;8.45;;;;;;;;;;5062356;28;20243;-69
2022/08/27 01:58:51;;;;;;;10.45;8.20;;;;;;;;;;5061724;28;20359;-69
2022/08/27 02:01:18;;;;;;;9.45;8.50;;;;;;;;;;5062969;28;20197;-69
2022/08/27 02:03:46;;;;;;;10.95;9.48;;;;;;;;;;5062914;28;20519;-69
2022/08/27 02:06:12;;;;;;;10.27;9.25;;;;;;;;;;5062497;28;20229;-69
2022/08/27 02:08:39;;;;;;;10.32;9.23;;;;;;;;;;5062668;28;20204;-69
2022/08/27 02:11:07;;;;;;;12.20;9.23;;;;;;;;;;5062608;28;20201;-69
2022/08/27 02:13:33;;;;;;;10.30;8.68;;;;;;;;;;5062493;28;20566;-69
2022/08/27 02:16:01;;;;;;;10.70;8.65;;;;;;;;;;5062845;28;20425;-69
2022/08/27 02:18:27;;;;;;;14.88;8.50;;;;;;;;;;5062669;28;20196;-69
2022/08/27 02:20:53;;;;;;;9.40;8.52;;;;;;;;;;5062244;28;20197;-69
2022/08/27 02:23:20;;;;;;;9.18;7.70;;;;;;;;;;5062529;28;20279;-70
2022/08/27 02:25:46;;;;;;;10.15;8.52;;;;;;;;;;5062335;28;20386;-69
2022/08/27 02:28:13;;;;;;;9.05;7.70;;;;;;;;;;5062185;28;20208;-69
2022/08/27 02:30:39;;;;;;;9.10;8.05;;;;;;;;;;5062347;28;20519;-69
2022/08/27 02:33:07;;;;;;;10.48;8.30;;;;;;;;;;5062546;28;20196;-69
2022/08/27 02:35:36;;;;;;;8.93;8.02;;;;;;;;;;5062390;28;20388;-69
2022/08/27 02:38:02;;;;;;;12.35;9.15;;;;;;;;;;5062362;28;20204;-69
2022/08/27 02:40:28;;;;;;;9.98;8.00;;;;;;;;;;5062003;28;20189;-69
2022/08/27 02:42:54;;;;;;;9.88;8.45;;;;;;;;;;5062036;28;20204;-69
2022/08/27 02:45:21;;;;;;;9.27;7.82;;;;;;;;;;5062327;28;20500;-69
2022/08/27 02:47:47;;;;;;;8.80;7.80;;;;;;;;;;5062272;28;20197;-69
2022/08/27 02:50:15;;;;;;;11.05;7.55;;;;;;;;;;5062318;28;20204;-69
2022/08/27 02:52:44;;;;;;;10.80;8.05;;;;;;;;;;5062137;28;20501;-69
2022/08/27 02:55:10;;;;;;;9.18;7.75;;;;;;;;;;5061974;28;20484;-69
2022/08/27 02:57:36;;;;;;;9.18;7.85;;;;;;;;;;5061920;28;20216;-69
2022/08/27 03:00:04;;;;;;;8.73;7.90;;;;;;;;;;5061910;28;20504;-69
2022/08/27 03:02:30;;;;;;;9.73;8.15;;;;;;;;;;5062074;28;20197;-69
2022/08/27 03:04:56;;;;;;;10.45;8.52;;;;;;;;;;5061903;28;20216;-69
2022/08/27 03:07:24;;;;;;;9.50;8.50;;;;;;;;;;5061872;28;20217;-69
2022/08/27 03:09:50;;;;;;;8.60;7.80;;;;;;;;;;5063834;28;20197;-69
2022/08/27 03:12:17;;;;;;;8.82;7.97;;;;;;;;;;5066196;28;20201;-69
2022/08/27 03:14:43;;;;;;;9.07;8.18;;;;;;;;;;5066263;28;20205;-69
2022/08/27 03:19:54;;;;;;;9.25;7.90;;;;;;;;;;5065690;28;20196;-69
2022/08/27 03:22:20;;;;;;;8.38;7.57;;;;;;;;;;5065623;28;20196;-69
2022/08/27 03:24:48;;;;;;;9.48;7.88;;;;;;;;;;5066038;28;20205;-69
2022/08/27 03:27:14;;;;;;;12.63;9.20;;;;;;;;;;5065677;28;20236;-69
2022/08/27 03:29:40;;;;;;;10.60;8.45;;;;;;;;;;5065646;28;20496;-69
2022/08/27 03:32:07;;;;;;;9.40;8.48;;;;;;;;;;5065694;28;20550;-69
2022/08/27 03:34:33;;;;;;;9.45;8.32;;;;;;;;;;5065596;28;20208;-69
2022/08/27 03:37:00;;;;;;;10.70;9.68;;;;;;;;;;5065432;28;20215;-69
2022/08/27 03:39:26;;;;;;;11.05;9.32;;;;;;;;;;5065429;28;20197;-69
2022/08/27 03:41:54;;;;;;;10.45;9.35;;;;;;;;;;5065687;28;20193;-69
2022/08/27 03:44:20;;;;;;;10.35;9.35;;;;;;;;;;5065563;28;20197;-69
2022/08/27 03:46:47;;;;;;;11.75;9.32;;;;;;;;;;5065427;28;20404;-69
2022/08/27 03:49:13;;;;;;;10.52;9.43;;;;;;;;;;5065246;28;20203;-69
2022/08/27 03:51:39;;;;;;;12.05;9.00;;;;;;;;;;5065213;28;20197;-69
2022/08/27 03:54:06;;;;;;;10.45;9.52;;;;;;;;;;5065433;28;20197;-69
2022/08/27 03:56:38;;;;;;;12.00;10.30;;;;;;;;;;5065338;28;20447;-69
2022/08/27 03:59:05;;;;;;;13.23;10.48;;;;;;;;;;5064909;28;20212;-69
2022/08/27 04:01:32;;;;;;;15.57;10.80;;;;;;;;;;5065153;28;20196;-69
2022/08/27 04:03:58;;;;;;;11.40;10.23;;;;;;;;;;5065016;28;20201;-69
2022/08/27 04:06:24;;;;;;;14.27;10.68;;;;;;;;;;5065179;28;20366;-69
2022/08/27 04:08:51;;;;;;;12.18;10.05;;;;;;;;;;5064899;28;20197;-69
2022/08/27 04:11:17;;;;;;;12.27;10.77;;;;;;;;;;5065187;28;20201;-69
2022/08/27 04:13:43;;;;;;;15.13;11.73;;;;;;;;;;5064872;28;20201;-69
2022/08/27 04:16:11;;;;;;;11.57;10.45;;;;;;;;;;5064660;28;20205;-68
2022/08/27 04:18:37;;;;;;;15.23;12.52;;;;;;;;;;5064631;28;20527;-68
2022/08/27 04:21:07;;;;;;;14.75;11.93;;;;;;;;;;5064372;28;20497;-68
2022/08/27 04:23:33;;;;;;;13.85;12.05;;;;;;;;;;5064633;28;20201;-68
2022/08/27 04:26:03;;;;;;;18.05;12.88;;;;;;;;;;5064822;28;20217;-67
2022/08/27 04:28:30;;;;;;;17.90;13.48;;;;;;;;;;5064689;28;20201;-68
2022/08/27 04:30:56;;;;;;;17.38;14.52;;;;;;;;;;5064317;28;20197;-68
2022/08/27 04:33:24;;;;;;;20.98;16.00;;;;;;;;;;5064624;28;20393;-68
2022/08/27 04:35:56;;;;;;;17.02;14.55;;;;;;;;;;5064944;28;20193;-68
2022/08/27 04:38:23;;;;;;;20.17;16.35;;;;;;;;;;5064534;28;20205;-68
2022/08/27 04:43:29;;;;;;;24.20;17.27;;;;;;;;;;5055428;28;20423;-68
2022/08/27 04:45:55;;;;;;;23.50;17.83;;;;;;;;;;5064237;28;20205;-67
2022/08/27 04:48:22;;;;;;;19.00;17.00;;;;;;;;;;5064473;28;20204;-68
2022/08/27 04:50:49;;;;;;;23.02;18.58;;;;;;;;;;5064036;28;20197;-68
2022/08/27 04:53:16;;;;;;;23.55;19.70;;;;;;;;;;5064181;28;20209;-68
2022/08/27 04:55:43;;;;;;;22.05;18.63;;;;;;;;;;5064145;28;20388;-68
2022/08/27 04:58:09;;;;;;;20.17;17.60;;;;;;;;;;5063919;28;20193;-68
2022/08/27 05:00:40;;;;;;;20.65;18.38;;;;;;;;;;5063660;28;20193;-68
2022/08/27 05:03:06;;;;;;;21.40;18.65;;;;;;;;;;5064102;28;20212;-68
2022/08/27 05:05:32;;;;;;;23.58;17.33;;;;;;;;;;5063825;28;20217;-67
2022/08/27 05:08:00;;;;;;;24.50;18.92;;;;;;;;;;5063728;28;20240;-68
2022/08/27 05:10:26;;;;;;;25.60;19.27;;;;;;;;;;5063690;28;20408;-68
2022/08/27 05:12:53;;;;;;;23.15;18.75;;;;;;;;;;5064192;28;20228;-67
2022/08/27 05:15:19;;;;;;;27.65;20.83;;;;;;;;;;5063933;28;20203;-68
2022/08/27 05:17:46;;;;;;;27.92;23.02;;;;;;;;;;5063829;28;20193;-68
2022/08/27 05:20:12;;;;;;;25.85;22.08;;;;;;;;;;5063521;28;20397;-68
2022/08/27 05:22:39;;;;;;;34.53;26.25;;;;;;;;;;5063463;28;20235;-68
2022/08/27 05:25:08;;;;;;;32.00;25.10;;;;;;;;;;5063594;28;20204;-69
2022/08/27 05:27:34;;;;;;;29.35;25.35;;;;;;;;;;5065752;28;20228;-69
2022/08/27 05:30:01;;;;;;;32.85;24.92;;;;;;;;;;5064378;28;20267;-64
2022/08/27 05:32:27;;;;;;;31.33;23.88;;;;;;;;;;5062519;28;20204;-64
2022/08/27 05:34:53;;;;;;;24.42;19.83;;;;;;;;;;5063531;28;20197;-63
2022/08/27 05:37:19;;;;;;;26.60;23.17;;;;;;;;;;5063304;28;20193;-63
2022/08/27 05:39:46;;;;;;;32.33;27.15;;;;;;;;;;5062918;28;20196;-63
2022/08/27 05:42:13;;;;;;;30.73;25.73;;;;;;;;;;5063595;28;20212;-63
2022/08/27 05:44:40;;;;;;;37.00;29.58;;;;;;;;;;5063239;28;20197;-64
2022/08/27 05:47:06;;;;;;;30.67;24.98;;;;;;;;;;5063215;28;20213;-64
2022/08/27 05:49:32;;;;;;;36.33;28.25;;;;;;;;;;5062802;28;20504;-64
2022/08/27 05:51:58;;;;;;;34.03;26.77;;;;;;;;;;5062868;28;20220;-64
2022/08/27 05:54:25;;;;;;;33.90;26.48;;;;;;;;;;5063384;28;20197;-64
2022/08/27 05:56:51;;;;;;;35.42;26.95;;;;;;;;;;5062960;28;20207;-64
2022/08/27 06:02:04;;;;;;;36.55;29.88;;;;;;;;;;5062966;28;20239;-63
2022/08/27 06:04:30;;;;;;;38.55;29.42;;;;;;;;;;5062730;28;20268;-64
2022/08/27 06:06:57;;;;;;;37.58;30.20;;;;;;;;;;5062612;28;20220;-64
2022/08/27 06:09:24;;;;;;;40.70;30.02;;;;;;;;;;5062654;28;20204;-64
2022/08/27 06:11:52;;;;;;;38.80;29.38;;;;;;;;;;5062783;28;20397;-64
2022/08/27 06:14:20;;;;;;;37.80;28.80;;;;;;;;;;5062767;28;20204;-65
2022/08/27 06:16:47;;;;;;;41.58;30.17;;;;;;;;;;5054653;28;20393;-64
2022/08/27 06:19:14;;;;;;;38.30;27.65;;;;;;;;;;5056012;28;20217;-64
2022/08/27 06:21:40;;;;;;;39.33;31.65;;;;;;;;;;5043269;28;20486;-64
2022/08/27 06:24:07;;;;;;;36.85;28.35;;;;;;;;;;5056609;28;20516;-66
2022/08/27 06:26:33;;;;;;;41.28;30.70;;;;;;;;;;5056516;28;20367;-65
2022/08/27 06:29:01;;;;;;;43.40;32.97;;;;;;;;;;5056283;28;20209;-66
2022/08/27 06:31:29;;;;;;;34.88;30.83;;;;;;;;;;5056628;28;20213;-65
2022/08/27 06:33:58;;;;;;;44.42;31.80;;;;;;;;;;5057069;28;20399;-66
2022/08/27 06:36:25;;;;;;;41.40;31.20;;;;;;;;;;5056768;28;20209;-65
2022/08/27 06:38:51;;;;;;;42.78;30.65;;;;;;;;;;5056313;28;20208;-65
2022/08/27 06:41:19;;;;;;;39.20;29.02;;;;;;;;;;5056344;28;20201;-64
2022/08/27 06:43:46;;;;;;;38.25;29.27;;;;;;;;;;5056461;28;20214;-64
2022/08/27 06:46:14;;;;;;;39.70;28.80;;;;;;;;;;5056427;28;20494;-65
2022/08/27 06:48:43;;;;;;;40.90;30.25;;;;;;;;;;5056134;28;20552;-64
2022/08/27 06:51:11;;;;;;;48.35;32.75;;;;;;;;;;5056209;28;20209;-65
2022/08/27 06:53:37;;;;;;;44.40;31.45;;;;;;;;;;5056605;28;20216;-65
2022/08/27 06:56:04;;;;;;;32.20;25.85;;;;;;;;;;5056322;28;20221;-65
2022/08/27 06:58:30;;;;;;;40.83;29.92;;;;;;;;;;5056069;28;20276;-66
2022/08/27 07:00:57;;;;;;;43.17;30.92;;;;;;;;;;5056212;28;20552;-66
2022/08/27 07:03:23;;;;;;;37.60;29.23;;;;;;;;;;5056347;28;20219;-65
2022/08/27 07:05:51;;;;;;;38.72;28.92;;;;;;;;;;5056275;28;20225;-66
2022/08/27 07:08:17;;;;;;;48.55;32.72;;;;;;;;;;5055914;28;20232;-65
2022/08/27 07:10:44;;;;;;;38.05;29.88;;;;;;;;;;5055804;28;20205;-64
2022/08/27 07:13:10;;;;;;;38.72;29.23;;;;;;;;;;5056222;28;20513;-64
2022/08/27 07:15:38;;;;;;;37.85;27.90;;;;;;;;;;5055860;28;20541;-64
2022/08/27 07:18:04;;;;;;;36.05;27.90;;;;;;;;;;5055774;28;20209;-64
2022/08/27 07:20:30;;;;;;;43.13;31.15;;;;;;;;;;5055886;28;20217;-64
2022/08/27 07:22:58;;;;;;;39.92;27.92;;;;;;;;;;5052779;28;20209;-64
2022/08/27 07:25:25;;;;;;;34.33;27.65;;;;;;;;;;5044423;28;20213;-63
2022/08/27 07:27:51;;;;;;;40.15;31.83;;;;;;;;;;5046328;28;20225;-63
2022/08/27 07:30:17;;;;;;;39.90;31.17;;;;;;;;;;5051388;28;20209;-64
2022/08/27 07:32:44;;;;;;;38.55;27.02;;;;;;;;;;5048812;28;20225;-64
2022/08/27 07:35:11;;;;;;;37.20;29.40;;;;;;;;;;5044068;28;20591;-64
2022/08/27 07:37:38;;;;;;;38.70;29.52;;;;;;;;;;5051300;28;20402;-64
2022/08/27 07:40:08;;;;;;;37.35;29.40;;;;;;;;;;5061986;28;20204;-63
2022/08/27 07:45:19;;;;;;;40.65;31.38;;;;;;;;;;5041461;28;20256;-63
2022/08/27 07:47:45;;;;;;;38.33;29.38;;;;;;;;;;5041941;28;20218;-63
2022/08/27 07:50:11;;;;;;;38.60;29.40;;;;;;;;;;5041334;28;20200;-63
2022/08/27 07:52:37;;;;;;;45.00;31.25;;;;;;;;;;5041816;28;20198;-63
2022/08/27 07:55:04;;;;;;;42.55;31.02;;;;;;;;;;5042443;28;20520;-63
2022/08/27 07:57:32;;;;;;;43.25;33.53;;;;;;;;;;5044831;28;20209;-63
2022/08/27 07:59:58;;;;;;;37.88;30.10;;;;;;;;;;5044848;28;20198;-63
2022/08/27 08:02:26;;;;;;;41.15;30.45;;;;;;;;;;5045231;28;20228;-63
2022/08/27 08:04:52;;;;;;;35.03;27.10;;;;;;;;;;5045034;28;20259;-63
2022/08/27 08:07:19;;;;;;;36.40;28.92;;;;;;;;;;5044825;28;20218;-63
2022/08/27 08:09:46;;;;;;;39.58;28.70;;;;;;;;;;5044679;28;20204;-63
2022/08/27 08:12:13;;;;;;;41.35;29.35;;;;;;;;;;5044924;28;20198;-63
2022/08/27 08:14:40;;;;;;;39.60;30.52;;;;;;;;;;5044815;28;20204;-64
2022/08/27 08:17:07;;;;;;;40.00;28.65;;;;;;;;;;5044971;28;20205;-64
2022/08/27 08:19:33;;;;;;;42.38;32.10;;;;;;;;;;5044961;28;20221;-63
2022/08/27 08:21:59;;;;;;;40.05;29.27;;;;;;;;;;5044763;28;20205;-63
2022/08/27 08:24:25;;;;;;;43.15;31.02;;;;;;;;;;5044626;28;20197;-64
2022/08/27 08:26:52;;;;;;;36.00;30.85;;;;;;;;;;5044759;28;20205;-64
2022/08/27 08:29:18;;;;;;;38.55;30.50;;;;;;;;;;5044390;28;20209;-65
2022/08/27 08:31:46;;;;;;;41.05;30.08;;;;;;;;;;5044716;28;20365;-64
2022/08/27 08:34:12;;;;;;;34.42;28.67;;;;;;;;;;5044650;28;20198;-63
2022/08/27 08:36:38;;;;;;;39.83;29.27;;;;;;;;;;5044724;28;20374;-64
2022/08/27 08:39:05;;;;;;;43.58;29.85;;;;;;;;;;5044199;28;20197;-64
2022/08/27 08:41:37;;;;;;;39.30;30.60;;;;;;;;;;5044416;28;20544;-64
2022/08/27 08:44:07;;;;;;;44.67;32.38;;;;;;;;;;5044413;28;20269;-63
2022/08/27 08:46:37;;;;;;;42.40;31.10;;;;;;;;;;5044412;28;20201;-64
2022/08/27 08:49:09;;;;;;;40.58;30.75;;;;;;;;;;5043982;28;20224;-64
2022/08/27 08:51:39;;;;;;;35.72;29.17;;;;;;;;;;5044154;28;20205;-64
2022/08/27 08:54:08;;;;;;;39.08;28.95;;;;;;;;;;5044193;28;20225;-64
2022/08/27 08:56:40;;;;;;;39.00;28.27;;;;;;;;;;5044207;28;20209;-64
2022/08/27 08:59:08;;;;;;;38.25;25.98;;;;;;;;;;5043963;28;20200;-64
2022/08/27 09:01:35;;;;;;;41.25;28.10;;;;;;;;;;5044011;28;20198;-64
2022/08/27 09:04:03;;;;;;;33.05;26.45;;;;;;;;;;5043882;28;20203;-64
2022/08/27 09:06:37;;;;;;;35.70;26.27;;;;;;;;;;5043774;28;20228;-64
2022/08/27 09:09:08;;;;;;;27.63;22.35;;;;;;;;;;5043806;28;20243;-64
2022/08/27 09:11:37;;;;;;;28.75;21.83;;;;;;;;;;5043893;28;20559;-64
2022/08/27 09:14:05;;;;;;;22.77;19.45;;;;;;;;;;5043875;28;20364;-64
2022/08/27 09:16:32;;;;;;;19.05;17.13;;;;;;;;;;5043546;28;20204;-64
2022/08/27 09:18:58;;;;;;;16.63;14.95;;;;;;;;;;5043650;28;20501;-64
2022/08/27 09:21:29;;;;;;;14.55;13.27;;;;;;;;;;5043812;28;20197;-64
2022/08/27 09:24:01;;;;;;;12.88;11.77;;;;;;;;;;5043621;28;20209;-64
2022/08/27 09:26:29;;;;;;;13.13;11.95;;;;;;;;;;5043650;28;20505;-64
2022/08/27 09:31:40;;;;;;;10.95;10.10;;;;;;;;;;5043423;28;20212;-64
2022/08/27 09:34:06;;;;;;;9.57;8.88;;;;;;;;;;5043524;28;20197;-64
2022/08/27 09:36:33;;;;;;;9.82;9.13;;;;;;;;;;5043555;28;20505;-64
2022/08/27 09:39:04;;;;;;;11.45;10.45;;;;;;;;;;5043156;28;20661;-64
2022/08/27 09:41:31;;;;;;;10.70;9.77;;;;;;;;;;5043181;28;20288;-64
2022/08/27 09:43:59;;;;;;;10.77;9.90;;;;;;;;;;5043383;28;20205;-64
2022/08/27 09:46:26;;;;;;;9.25;8.55;;;;;;;;;;5043279;28;20197;-64
2022/08/27 09:48:52;;;;;;;8.15;7.45;;;;;;;;;;5042852;28;20279;-64
2022/08/27 09:51:20;;;;;;;8.25;7.65;;;;;;;;;;5043134;28;20519;-63
2022/08/27 09:53:49;;;;;;;7.20;6.60;;;;;;;;;;5042880;28;20198;-64
2022/08/27 09:56:24;;;;;;;7.18;6.63;;;;;;;;;;5042811;28;20209;-64
2022/08/27 09:58:52;;;;;;;7.72;6.97;;;;;;;;;;5042803;28;20232;-64
2022/08/27 10:01:19;;;;;;;8.07;7.57;;;;;;;;;;5043093;28;20301;-64
2022/08/27 10:03:45;;;;;;;7.90;7.30;;;;;;;;;;5043107;28;20189;-64
2022/08/27 10:06:13;;;;;;;8.93;7.47;;;;;;;;;;5042862;28;20248;-64
2022/08/27 10:08:43;;;;;;;9.15;8.38;;;;;;;;;;5042559;28;20225;-64
2022/08/27 10:11:11;;;;;;;8.18;7.53;;;;;;;;;;5042784;28;20668;-64
2022/08/27 10:13:45;;;;;;;9.63;8.88;;;;;;;;;;5042627;28;20198;-64
2022/08/27 10:16:26;;;;;;;9.43;8.73;;;;;;;;;;5042673;28;20276;-64
2022/08/27 10:18:55;;;;;;;9.07;8.38;;;;;;;;;;5041917;28;20396;-64
2022/08/27 10:21:24;;;;;;;9.00;8.40;;;;;;;;;;5042773;28;20505;-64
2022/08/27 10:23:56;;;;;;;8.82;8.13;;;;;;;;;;5042788;28;20225;-64
2022/08/27 10:26:25;;;;;;;8.23;7.63;;;;;;;;;;5042640;28;20197;-63
2022/08/27 10:28:59;;;;;;;8.65;8.05;;;;;;;;;;5042162;28;20230;-64
2022/08/27 10:31:31;;;;;;;10.90;9.90;;;;;;;;;;5042377;28;20260;-64
2022/08/27 10:34:11;;;;;;;9.43;8.63;;;;;;;;;;5042521;28;20236;-64
2022/08/27 10:36:43;;;;;;;11.18;10.27;;;;;;;;;;5042436;28;20235;-64
2022/08/27 10:39:16;;;;;;;9.93;9.23;;;;;;;;;;5042118;28;20194;-64
2022/08/27 10:41:45;;;;;;;11.65;10.45;;;;;;;;;;5042293;28;20204;-64
2022/08/27 10:44:27;;;;;;;10.00;9.10;;;;;;;;;;5042171;28;20205;-64
2022/08/27 10:47:00;;;;;;;11.13;10.00;;;;;;;;;;5042314;28;20204;-64
2022/08/27 10:49:32;;;;;;;11.30;10.20;;;;;;;;;;5041851;28;20264;-64
2022/08/27 10:52:03;;;;;;;9.98;9.20;;;;;;;;;;5042056;28;20497;-64
2022/08/27 10:54:38;;;;;;;10.90;9.88;;;;;;;;;;5042016;28;20198;-64
2022/08/27 10:57:08;;;;;;;10.02;9.13;;;;;;;;;;5042039;28;20216;-64
2022/08/27 10:59:38;;;;;;;11.82;10.60;;;;;;;;;;5041834;28;20195;-63
2022/08/27 11:02:08;;;;;;;12.00;10.98;;;;;;;;;;5048874;28;20215;-65
2022/08/27 11:04:37;;;;;;;10.65;9.60;;;;;;;;;;5058853;28;20421;-65
2022/08/27 11:07:06;;;;;;;11.32;10.25;;;;;;;;;;5047744;28;20202;-65
2022/08/27 11:09:35;;;;;;;11.40;10.50;;;;;;;;;;5058851;28;20221;-66
2022/08/27 11:12:03;;;;;;;11.60;10.50;;;;;;;;;;5059038;28;20205;-66
2022/08/27 11:14:32;;;;;;;11.02;10.18;;;;;;;;;;5059168;28;20475;-66
2022/08/27 11:17:02;;;;;;;12.13;11.05;;;;;;;;;;5059398;28;20211;-66
2022/08/27 11:19:31;;;;;;;11.95;10.98;;;;;;;;;;5058671;28;20193;-66
2022/08/27 11:22:02;;;;;;;13.82;12.27;;;;;;;;;;5059120;28;20212;-66
2022/08/27 11:24:32;;;;;;;12.38;11.20;;;;;;;;;;5059010;28;20212;-66
2022/08/27 11:27:01;;;;;;;12.45;11.27;;;;;;;;;;5059045;28;20432;-66
2022/08/27 11:29:31;;;;;;;12.48;11.25;;;;;;;;;;5059080;28;20224;-65
2022/08/27 11:32:00;;;;;;;13.73;12.32;;;;;;;;;;5062611;28;20219;-65
2022/08/27 11:34:31;;;;;;;12.95;11.85;;;;;;;;;;5060193;28;20215;-64
2022/08/27 11:37:15;;;;;;;14.13;12.73;;;;;;;;;;5059836;28;20220;-63
2022/08/27 11:39:56;;;;;;;14.73;13.38;;;;;;;;;;5060289;28;20208;-63
2022/08/27 11:42:31;;;;;;;14.70;13.40;;;;;;;;;;5058292;28;20216;-63
2022/08/27 11:44:58;;;;;;;16.23;14.73;;;;;;;;;;5059354;28;20216;-63
2022/08/27 11:47:25;;;;;;;15.07;13.55;;;;;;;;;;5059839;28;20209;-62
2022/08/27 11:49:55;;;;;;;15.32;13.98;;;;;;;;;;5059377;28;20553;-62
2022/08/27 11:52:24;;;;;;;17.23;15.55;;;;;;;;;;5059364;28;20215;-63
2022/08/27 11:54:51;;;;;;;16.65;14.95;;;;;;;;;;5059596;28;20216;-63
2022/08/27 11:57:26;;;;;;;17.83;15.73;;;;;;;;;;5059437;28;20221;-63
2022/08/27 11:59:52;;;;;;;15.93;14.27;;;;;;;;;;5059316;28;20567;-63
2022/08/27 12:02:21;;;;;;;17.10;15.32;;;;;;;;;;5059235;28;20547;-63
2022/08/27 12:04:47;;;;;;;17.55;15.68;;;;;;;;;;5059210;28;20295;-63
2022/08/27 12:07:34;;;;;;;17.33;15.73;;;;;;;;;;5059194;28;20209;-63
2022/08/27 12:10:18;;;;;;;16.80;15.23;;;;;;;;;;5055396;28;20296;-63
2022/08/27 12:12:51;;;;;;;18.08;16.15;;;;;;;;;;5059040;28;20212;-63
2022/08/27 12:15:21;;;;;;;16.75;15.05;;;;;;;;;;5059187;28;20216;-63
2022/08/27 12:17:53;;;;;;;18.70;16.73;;;;;;;;;;5058875;28;20209;-63
2022/08/27 12:20:23;;;;;;;18.05;16.15;;;;;;;;;;5058792;28;20477;-63
2022/08/27 12:25:54;;;;;;;17.83;15.73;;;;;;;;;;5059101;28;20239;-63
2022/08/27 12:28:23;;;;;;;17.10;15.43;;;;;;;;;;5058926;28;20250;-63
2022/08/27 12:30:50;;;;;;;18.58;16.83;;;;;;;;;;5058641;28;20209;-63
2022/08/27 12:33:21;;;;;;;17.10;15.50;;;;;;;;;;5058525;28;20280;-63
2022/08/27 12:35:50;;;;;;;17.63;15.93;;;;;;;;;;5058936;28;20209;-63
2022/08/27 12:38:18;;;;;;;17.55;15.82;;;;;;;;;;5058912;28;20542;-63
2022/08/27 12:40:50;;;;;;;17.35;15.65;;;;;;;;;;5058109;28;20209;-63
2022/08/27 12:43:18;;;;;;;17.90;16.10;;;;;;;;;;5058551;28;20213;-63
2022/08/27 12:45:47;;;;;;;7.20;6.50;;;;;;;;;;5058669;28;20209;-63
2022/08/27 12:48:13;;;;;;;4.90;4.55;;;;;;;;;;5058332;28;20215;-63
2022/08/27 12:50:40;;;;;;;3.88;3.67;;;;;;;;;;5058271;28;20258;-63
2022/08/27 12:53:15;;;;;;;3.65;3.45;;;;;;;;;;5057950;28;20216;-63
2022/08/27 12:55:54;;;;;;;4.30;4.00;;;;;;;;;;5058218;28;20216;-63
2022/08/27 12:58:24;;;;;;;5.35;5.00;;;;;;;;;;5058197;28;20208;-63
2022/08/27 13:01:10;;;;;;;7.45;5.60;;;;;;;;;;5057945;28;20398;-63
2022/08/27 13:03:38;;;;;;;5.75;5.25;;;;;;;;;;5058242;28;20540;-63
2022/08/27 13:06:14;;;;;;;5.97;5.53;;;;;;;;;;5058054;28;20217;-63
2022/08/27 13:08:40;;;;;;;5.78;5.28;;;;;;;;;;5058265;28;20254;-63
2022/08/27 13:11:09;;;;;;;5.57;5.05;;;;;;;;;;5058054;28;20538;-63
2022/08/27 13:13:36;;;;;;;5.90;5.40;;;;;;;;;;5057957;28;20232;-63
2022/08/27 13:16:03;;;;;;;6.25;5.65;;;;;;;;;;5058395;28;20558;-63
2022/08/27 13:18:30;;;;;;;6.18;5.65;;;;;;;;;;5057955;28;20211;-63
2022/08/27 13:21:00;;;;;;;5.57;5.18;;;;;;;;;;5057774;28;20217;-63
2022/08/27 13:23:27;;;;;;;4.63;4.32;;;;;;;;;;5057701;28;20393;-63
2022/08/27 13:25:54;;;;;;;5.00;4.63;;;;;;;;;;5058175;28;20209;-63
2022/08/27 13:28:24;;;;;;;5.78;5.38;;;;;;;;;;5058262;28;20399;-63
2022/08/27 13:30:51;;;;;;;5.32;5.03;;;;;;;;;;5057868;28;20205;-63
2022/08/27 13:33:19;;;;;;;5.25;4.85;;;;;;;;;;5057875;28;20216;-63
2022/08/27 13:35:46;;;;;;;5.03;4.72;;;;;;;;;;5058027;28;20216;-63
2022/08/27 13:38:14;;;;;;;4.35;4.00;;;;;;;;;;5057536;28;20406;-63
2022/08/27 13:40:51;;;;;;;6.03;4.78;;;;;;;;;;5057610;28;20461;-63
2022/08/27 13:43:17;;;;;;;5.63;5.13;;;;;;;;;;5057627;28;20254;-63
2022/08/27 13:45:50;;;;;;;5.50;5.10;;;;;;;;;;5057703;28;20870;-63
2022/08/27 13:48:17;;;;;;;6.78;6.20;;;;;;;;;;5057681;28;20205;-63
2022/08/27 13:50:49;;;;;;;5.93;5.43;;;;;;;;;;5057448;28;20229;-63
2022/08/27 13:56:02;;;;;;;4.72;4.53;;;;;;;;;;5057177;28;20436;-63
2022/08/27 13:58:29;;;;;;;4.88;4.57;;;;;;;;;;5057328;28;20209;-63
2022/08/27 14:01:06;;;;;;;5.57;5.18;;;;;;;;;;5056900;28;20568;-63
2022/08/27 14:03:33;;;;;;;6.60;4.50;;;;;;;;;;5057008;28;20208;-63
2022/08/27 14:06:00;;;;;;;4.95;4.53;;;;;;;;;;5056792;28;20229;-63
2022/08/27 14:08:28;;;;;;;4.70;4.28;;;;;;;;;;5057159;28;20216;-63
2022/08/27 14:10:59;;;;;;;4.93;4.63;;;;;;;;;;5056453;28;20236;-62
2022/08/27 14:13:27;;;;;;;4.65;4.25;;;;;;;;;;5056584;28;20216;-63
2022/08/27 14:15:54;;;;;;;5.70;5.30;;;;;;;;;;5056759;28;20397;-63
2022/08/27 14:18:23;;;;;;;5.85;5.45;;;;;;;;;;5056782;28;20283;-63
2022/08/27 14:20:50;;;;;;;5.32;5.03;;;;;;;;;;5056193;28;20209;-63
2022/08/27 14:23:16;;;;;;;5.53;5.15;;;;;;;;;;5056251;28;20212;-63
2022/08/27 14:25:43;;;;;;;5.13;4.88;;;;;;;;;;5056740;28;20209;-63
2022/08/27 14:28:09;;;;;;;5.35;5.05;;;;;;;;;;5056731;28;20209;-63
2022/08/27 14:30:35;;;;;;;5.75;5.38;;;;;;;;;;5056583;28;20224;-63
2022/08/27 14:33:02;;;;;;;5.47;5.07;;;;;;;;;;5056246;28;20346;-63
2022/08/27 14:35:31;;;;;;;5.45;5.10;;;;;;;;;;5056201;28;20463;-63
2022/08/27 14:37:58;;;;;;;5.13;4.82;;;;;;;;;;5056181;28;20213;-63
2022/08/27 14:40:24;;;;;;;5.43;5.03;;;;;;;;;;5055878;28;20205;-63
2022/08/27 14:42:51;;;;;;;5.57;5.10;;;;;;;;;;5056045;28;20423;-62
2022/08/27 14:45:18;;;;;;;5.78;5.28;;;;;;;;;;5056179;28;20216;-63
2022/08/27 14:47:44;;;;;;;5.80;5.30;;;;;;;;;;5056226;28;20209;-63
2022/08/27 14:50:11;;;;;;;5.80;5.30;;;;;;;;;;5055869;28;20232;-63
2022/08/27 14:52:39;;;;;;;6.03;5.43;;;;;;;;;;5055987;28;20213;-63
2022/08/27 14:55:06;;;;;;;6.38;5.70;;;;;;;;;;5056154;28;20434;-63